Terminal Aerodrome Forecast
Issued by NWS Missoula, MT

Home | Current Version | Previous Version | Text Only | Print | Product List | Glossary On
Versions: 1 2 3 4 5 6 7 8 9 10 11 12 13 14 15 16 17 18 19
000
FTUS45 KMSO 191003 AAA
TAFGPI
TAF AMD
KGPI 191003Z 1910/2006 00000KT 1/2SM FZFG BKN010 OVC040
     FM191200 00000KT 1SM BR SCT010 BKN035
     FM191500 17003KT 6SM BR VCSH OVC050=

USA.gov is the U.S. government's official web portal to all federal, state and local government web resources and services.